Time;durP1;ratioP1;P1;durP2;ratioP2;P2;SDS_P1;SDS_P2;PMS_P1;PMS_P2;Temp;Humidity;BMP_temperature;BMP_pressure;BME280_temperature;BME280_humidity;BME280_pressure;Samples;Min_cycle;Max_cycle;Signal;HPM_P1;HPM_P2
2021/01/23 00:02:05;;;;;;;12.95;3.58;;;21.10;90.30;;;;;;5073623;28;20028;-68
2021/01/23 00:04:32;;;;;;;25.85;9.27;;;21.00;90.60;;;;;;5082455;28;20023;-67
2021/01/23 00:06:59;;;;;;;23.02;7.47;;;21.10;90.80;;;;;;5070017;28;20035;-68
2021/01/23 00:09:26;;;;;;;19.60;4.97;;;21.80;90.20;;;;;;5090247;28;20099;-68
2021/01/23 00:11:53;;;;;;;21.65;5.95;;;22.60;82.20;;;;;;5063772;28;20028;-66
2021/01/23 00:14:19;;;;;;;28.85;5.68;;;23.30;76.80;;;;;;5085785;28;20020;-67
2021/01/23 00:16:46;;;;;;;21.83;4.95;;;23.00;75.60;;;;;;5070799;28;20027;-68
2021/01/23 00:19:12;;;;;;;23.92;5.25;;;22.20;81.60;;;;;;5086256;28;20021;-68
2021/01/23 00:21:39;;;;;;;23.65;5.97;;;21.60;86.10;;;;;;5087363;28;20021;-67
2021/01/23 00:24:06;;;;;;;26.63;5.20;;;21.00;95.90;;;;;;5086047;28;20055;-66
2021/01/23 00:26:33;;;;;;;21.10;5.15;;;21.10;90.90;;;;;;5078627;28;20023;-66
2021/01/23 00:29:00;;;;;;;25.17;5.50;;;20.70;92.00;;;;;;5062920;28;20024;-65
2021/01/23 00:31:26;;;;;;;18.88;5.43;;;20.40;94.60;;;;;;5086910;28;20043;-66
2021/01/23 00:33:53;;;;;;;15.95;4.50;;;20.10;98.30;;;;;;5083524;28;20024;-66
2021/01/23 00:36:19;;;;;;;19.90;4.10;;;19.90;99.90;;;;;;5101495;28;20047;-67
2021/01/23 00:38:46;;;;;;;21.42;4.28;;;19.70;99.90;;;;;;5108634;28;20027;-66
2021/01/23 00:41:12;;;;;;;18.60;4.00;;;19.60;99.90;;;;;;5105901;28;20016;-66
2021/01/23 00:43:39;;;;;;;15.95;3.72;;;19.40;99.90;;;;;;5103371;28;20536;-66
2021/01/23 00:46:06;;;;;;;22.48;4.18;;;19.20;99.90;;;;;;5106691;28;20419;-66
2021/01/23 00:48:32;;;;;;;18.00;3.50;;;19.10;99.90;;;;;;5087271;28;20030;-67
2021/01/23 00:50:59;;;;;;;23.17;4.15;;;19.00;99.90;;;;;;5090456;28;20027;-68
2021/01/23 00:53:25;;;;;;;20.65;3.60;;;18.90;99.90;;;;;;5107762;28;20036;-68
2021/01/23 00:55:52;;;;;;;18.13;4.05;;;18.80;99.90;;;;;;5103352;28;20023;-68
2021/01/23 00:58:18;;;;;;;;;;;18.70;99.90;;;;;;5105987;28;20039;-68
2021/01/23 01:00:44;;;;;;;26.38;6.80;;;18.60;99.90;;;;;;5106193;28;19942;-68
2021/01/23 01:03:11;;;;;;;16.92;5.13;;;18.60;99.90;;;;;;5107228;28;20039;-67
2021/01/23 01:05:37;;;;;;;19.25;5.22;;;18.50;99.90;;;;;;5102775;28;20038;-68
2021/01/23 01:08:04;;;;;;;25.02;3.97;;;18.40;99.90;;;;;;5099911;28;20032;-68
2021/01/23 01:10:31;;;;;;;21.65;4.47;;;18.40;99.90;;;;;;5096301;28;20020;-67
2021/01/23 01:12:57;;;;;;;22.27;4.43;;;18.30;99.90;;;;;;5102536;28;20411;-68
2021/01/23 01:15:23;;;;;;;;;;;18.20;99.90;;;;;;5087010;28;20028;-67
2021/01/23 01:17:50;;;;;;;24.27;4.63;;;18.10;99.90;;;;;;5082698;28;20007;-67
2021/01/23 01:20:16;;;;;;;16.77;4.30;;;18.10;99.90;;;;;;5094943;28;20072;-67
2021/01/23 01:22:43;;;;;;;18.13;4.40;;;18.00;99.90;;;;;;5096035;28;20489;-68
2021/01/23 01:25:10;;;;;;;19.33;3.90;;;17.90;99.90;;;;;;5108201;28;20076;-67
2021/01/23 01:27:36;;;;;;;21.08;4.05;;;17.90;99.90;;;;;;5109157;28;20095;-66
2021/01/23 01:30:04;;;;;;;23.88;3.85;;;17.90;99.90;;;;;;5107502;28;20478;-67
2021/01/23 01:32:30;;;;;;;20.90;3.80;;;17.80;99.90;;;;;;5079704;28;20032;-66
2021/01/23 01:34:57;;;;;;;16.65;3.80;;;17.80;99.90;;;;;;5107040;28;20034;-68
2021/01/23 01:37:23;;;;;;;;;;;17.70;99.90;;;;;;5102280;28;20028;-67
2021/01/23 01:39:49;;;;;;;22.60;4.75;;;17.60;99.90;;;;;;5108226;28;19999;-67
2021/01/23 01:42:16;;;;;;;18.65;4.25;;;17.60;99.90;;;;;;5101694;28;20548;-67
2021/01/23 01:44:42;;;;;;;19.42;4.25;;;17.60;99.90;;;;;;5108257;28;20047;-67
2021/01/23 01:47:09;;;;;;;;;;;17.60;99.90;;;;;;5109927;28;20102;-67
2021/01/23 01:49:35;;;;;;;22.65;4.53;;;17.60;99.90;;;;;;5099543;28;19904;-67
2021/01/23 01:52:02;;;;;;;28.73;6.70;;;17.50;99.90;;;;;;5104445;28;20039;-67
2021/01/23 01:54:29;;;;;;;28.27;7.05;;;17.50;99.90;;;;;;5088869;28;20021;-67
2021/01/23 01:56:56;;;;;;;21.13;5.10;;;17.50;99.90;;;;;;5088746;28;20441;-66
2021/01/23 01:59:23;;;;;;;19.65;4.03;;;17.50;99.90;;;;;;5107273;28;20035;-66
2021/01/23 02:02:10;;;;;;;25.30;4.68;;;17.40;99.90;;;;;;5099297;28;20043;-67
2021/01/23 02:04:57;;;;;;;20.52;4.10;;;17.40;99.90;;;;;;5093148;28;20464;-66
2021/01/23 02:08:04;;;;;;;23.50;5.03;;;17.40;99.90;;;;;;5107965;28;20098;-66
2021/01/23 02:11:09;;;;;;;27.00;5.27;;;17.30;99.90;;;;;;5074865;28;20115;-67
2021/01/23 02:13:45;;;;;;;26.17;4.50;;;17.30;99.90;;;;;;5100976;28;20287;-67
2021/01/23 02:16:25;;;;;;;23.10;5.13;;;17.20;99.90;;;;;;5096359;28;20127;-66
2021/01/23 02:19:31;;;;;;;21.60;4.97;;;17.20;99.90;;;;;;5111276;28;20023;-66
2021/01/23 02:22:27;;;;;;;22.23;5.15;;;17.20;99.90;;;;;;5101775;28;20048;-67
2021/01/23 02:24:55;;;;;;;26.35;5.90;;;17.10;99.90;;;;;;5098003;28;20443;-67
2021/01/23 02:28:00;;;;;;;20.25;4.35;;;17.10;99.90;;;;;;5107303;28;20023;-66
2021/01/23 02:30:48;;;;;;;26.90;4.63;;;17.10;99.90;;;;;;5084601;28;20463;-66
2021/01/23 02:33:16;;;;;;;27.45;4.93;;;17.10;99.90;;;;;;5108827;28;20452;-66
2021/01/23 02:35:44;;;;;;;23.23;5.35;;;17.00;99.90;;;;;;5107639;28;20051;-66
2021/01/23 02:38:11;;;;;;;27.77;5.80;;;17.10;99.90;;;;;;5101326;28;20024;-66
2021/01/23 02:40:38;;;;;;;30.35;7.03;;;17.00;99.90;;;;;;5108440;28;20016;-66
2021/01/23 02:43:05;;;;;;;29.33;7.55;;;17.00;99.90;;;;;;5104117;28;20024;-66
2021/01/23 02:45:31;;;;;;;;;;;17.00;99.90;;;;;;5101626;28;20469;-66
2021/01/23 02:47:58;;;;;;;34.85;8.30;;;17.00;99.90;;;;;;5099677;28;20006;-66
2021/01/23 02:50:26;;;;;;;32.35;9.25;;;17.00;99.90;;;;;;5102751;28;20384;-66
2021/01/23 02:53:02;;;;;;;32.20;8.68;;;17.00;99.90;;;;;;5107871;28;20038;-66
2021/01/23 02:55:33;;;;;;;36.63;9.55;;;17.00;99.90;;;;;;5107713;28;20426;-66
2021/01/23 02:58:04;;;;;;;37.88;8.73;;;17.00;99.90;;;;;;5108209;28;20367;-66
2021/01/23 03:00:32;;;;;;;39.75;10.57;;;17.00;99.90;;;;;;5099767;28;20016;-66
2021/01/23 03:03:01;;;;;;;40.30;10.55;;;16.90;99.90;;;;;;5094291;28;20564;-65
2021/01/23 03:05:30;;;;;;;36.97;10.50;;;16.90;99.90;;;;;;5101900;28;20024;-66
2021/01/23 03:07:57;;;;;;;27.63;8.63;;;16.90;99.90;;;;;;5108241;28;20107;-65
2021/01/23 03:10:47;;;;;;;39.45;10.35;;;16.90;99.90;;;;;;5099642;28;20495;-67
2021/01/23 03:13:15;;;;;;;41.83;10.00;;;16.80;99.90;;;;;;5096382;28;20497;-67
2021/01/23 03:15:42;;;;;;;34.90;9.80;;;16.80;99.90;;;;;;5084948;28;20468;-66
2021/01/23 03:18:09;;;;;;;36.75;10.07;;;16.80;99.90;;;;;;5088394;28;20027;-66
2021/01/23 03:20:36;;;;;;;31.55;9.23;;;16.70;99.90;;;;;;5096893;28;20112;-68
2021/01/23 03:23:03;;;;;;;28.15;9.25;;;16.60;99.90;;;;;;5099216;28;20043;-67
2021/01/23 03:25:31;;;;;;;27.13;9.25;;;16.70;99.90;;;;;;5090614;28;20023;-67
2021/01/23 03:27:58;;;;;;;34.13;10.50;;;16.60;99.90;;;;;;5108592;28;20019;-67
2021/01/23 03:30:26;;;;;;;28.83;9.55;;;16.50;99.90;;;;;;5094502;28;20110;-67
2021/01/23 03:32:53;;;;;;;40.13;11.13;;;16.50;99.90;;;;;;5096003;28;20483;-67
2021/01/23 03:35:21;;;;;;;40.72;11.18;;;16.40;99.90;;;;;;5107229;28;20064;-66
2021/01/23 03:37:48;;;;;;;36.20;11.70;;;16.30;99.90;;;;;;5106071;28;20034;-66
2021/01/23 03:40:15;;;;;;;33.78;12.18;;;16.30;99.90;;;;;;5107645;28;20522;-66
2021/01/23 03:42:42;;;;;;;35.35;12.15;;;16.30;99.90;;;;;;5094298;28;20020;-66
2021/01/23 03:45:09;;;;;;;;;;;16.20;99.90;;;;;;5090106;28;20051;-66
2021/01/23 03:47:36;;;;;;;28.58;10.43;;;16.10;99.90;;;;;;5095566;28;20604;-66
2021/01/23 03:50:05;;;;;;;26.30;10.38;;;16.10;99.90;;;;;;5102614;28;20024;-66
2021/01/23 03:52:32;;;;;;;40.03;10.07;;;16.00;99.90;;;;;;5097738;28;20488;-66
2021/01/23 03:54:58;;;;;;;;;;;16.00;99.90;;;;;;5099471;28;20552;-67
2021/01/23 03:57:24;;;;;;;49.83;18.85;;;16.00;99.90;;;;;;5105864;28;19908;-66
2021/01/23 03:59:50;;;;;;;;;;;16.00;99.90;;;;;;5097418;28;20380;-66
2021/01/23 04:02:17;;;;;;;46.13;22.73;;;16.00;99.90;;;;;;5107349;28;20376;-66
2021/01/23 04:04:43;;;;;;;;;;;15.90;99.90;;;;;;5094403;28;20099;-66
2021/01/23 04:07:10;;;;;;;44.45;22.48;;;15.90;99.90;;;;;;5080332;28;19947;-66
2021/01/23 04:09:36;;;;;;;;;;;15.90;99.90;;;;;;5102984;28;20028;-66
2021/01/23 04:12:03;;;;;;;44.72;20.05;;;15.80;99.90;;;;;;5101680;28;20363;-66
2021/01/23 04:14:29;;;;;;;46.03;19.50;;;15.80;99.90;;;;;;5098999;28;20035;-67
2021/01/23 04:16:56;;;;;;;;;;;15.80;99.90;;;;;;5081285;28;20036;-67
2021/01/23 04:19:22;;;;;;;44.83;19.15;;;15.80;99.90;;;;;;5103267;28;19957;-66
2021/01/23 04:21:50;;;;;;;;;;;15.70;99.90;;;;;;5100587;27;20035;-66
2021/01/23 04:24:16;;;;;;;40.25;16.75;;;15.70;99.90;;;;;;5090352;28;19970;-67
2021/01/23 04:26:43;;;;;;;53.55;19.27;;;15.70;99.90;;;;;;5097510;28;20048;-66
2021/01/23 04:29:09;;;;;;;48.50;20.45;;;15.60;99.90;;;;;;5088787;28;20034;-66
2021/01/23 04:31:36;;;;;;;;;;;15.60;99.90;;;;;;5105003;28;20028;-65
2021/01/23 04:34:03;;;;;;;50.15;19.83;;;15.50;99.90;;;;;;5082203;28;19939;-66
2021/01/23 04:36:31;;;;;;;42.10;19.60;;;15.50;99.90;;;;;;5099626;28;20074;-66
2021/01/23 04:38:58;;;;;;;48.88;21.58;;;15.30;99.90;;;;;;5098370;28;20024;-66
2021/01/23 04:41:28;;;;;;;53.42;22.08;;;15.30;99.90;;;;;;5105788;28;20054;-66
2021/01/23 04:43:55;;;;;;;47.67;21.40;;;15.30;99.90;;;;;;5100998;28;20125;-66
2021/01/23 04:46:23;;;;;;;49.47;22.05;;;15.30;99.90;;;;;;5098872;28;20486;-66
2021/01/23 04:48:50;;;;;;;48.53;22.17;;;15.30;99.90;;;;;;5095230;28;20028;-64
2021/01/23 04:51:17;;;;;;;48.30;22.08;;;15.40;99.90;;;;;;5097486;28;20034;-66
2021/01/23 04:53:47;;;;;;;54.83;25.20;;;15.40;99.90;;;;;;5088764;28;20038;-65
2021/01/23 04:56:14;;;;;;;68.22;27.92;;;15.30;99.90;;;;;;5095284;28;20034;-65
2021/01/23 04:58:40;;;;;;;;;;;15.20;99.90;;;;;;5096414;28;20031;-65
2021/01/23 05:01:11;;;;;;;70.38;29.42;;;15.20;99.90;;;;;;5095314;28;19946;-65
2021/01/23 05:03:54;;;;;;;63.75;27.02;;;15.20;99.90;;;;;;5102914;28;20349;-65
2021/01/23 05:06:21;;;;;;;54.13;23.73;;;15.20;99.90;;;;;;5102723;28;20039;-65
2021/01/23 05:08:47;;;;;;;;;;;15.20;99.90;;;;;;5102693;28;20238;-66
2021/01/23 05:11:13;;;;;;;48.10;22.70;;;15.20;99.90;;;;;;5098882;28;20454;-65
2021/01/23 05:13:39;;;;;;;;;;;15.20;99.90;;;;;;5097068;28;20510;-66
2021/01/23 05:16:24;;;;;;;51.22;20.83;;;15.10;99.90;;;;;;5103887;28;20363;-65
2021/01/23 05:19:03;;;;;;;43.85;17.95;;;15.10;99.90;;;;;;5108167;28;20064;-65
2021/01/23 05:21:33;;;;;;;54.50;23.50;;;15.10;99.90;;;;;;5100427;28;20032;-65
2021/01/23 05:24:09;;;;;;;52.85;22.83;;;15.00;99.90;;;;;;5097814;28;20035;-65
2021/01/23 05:26:38;;;;;;;50.05;21.02;;;14.90;99.90;;;;;;5109413;28;20169;-65
2021/01/23 05:29:11;;;;;;;53.13;21.02;;;15.00;99.90;;;;;;5087307;28;20481;-66
2021/01/23 05:31:39;;;;;;;41.65;17.15;;;15.00;99.90;;;;;;5107124;27;20055;-66
2021/01/23 05:34:31;;;;;;;26.08;8.55;;;14.90;99.90;;;;;;5083584;28;20046;-66
2021/01/23 05:37:00;;;;;;;22.33;5.85;;;14.80;99.90;;;;;;5111938;28;20053;-66
2021/01/23 05:39:48;;;;;;;19.13;4.28;;;14.80;99.90;;;;;;5105373;28;20038;-66
2021/01/23 05:42:17;;;;;;;17.88;3.92;;;14.80;99.90;;;;;;5088681;28;20076;-66
2021/01/23 05:45:05;;;;;;;18.25;4.93;;;14.80;99.90;;;;;;5104427;28;20034;-66
2021/01/23 05:47:32;;;;;;;10.10;2.58;;;14.80;99.90;;;;;;5077865;28;20125;-67
2021/01/23 05:49:58;;;;;;;11.98;2.17;;;14.80;95.80;;;;;;5114138;27;20114;-67
2021/01/23 05:52:24;;;;;;;;;;;14.70;92.40;;;;;;5101067;28;20063;-67
2021/01/23 05:54:51;;;;;;;14.27;2.80;;;14.80;86.00;;;;;;5128099;27;20268;-66
2021/01/23 05:57:18;;;;;;;18.73;2.92;;;14.70;84.90;;;;;;5091387;28;20508;-66
2021/01/23 05:59:45;;;;;;;9.00;1.92;;;14.70;82.70;;;;;;5101157;28;20043;-67
2021/01/23 06:02:14;;;;;;;18.33;3.63;;;14.70;81.50;;;;;;5085481;28;20039;-67
2021/01/23 06:04:42;;;;;;;11.55;2.80;;;14.80;80.80;;;;;;5103933;28;20120;-67
2021/01/23 06:07:10;;;;;;;16.17;2.40;;;14.80;80.40;;;;;;5098491;28;20040;-67
2021/01/23 06:09:39;;;;;;;13.05;2.50;;;14.80;76.70;;;;;;5098546;28;20430;-67
2021/01/23 06:12:26;;;;;;;17.30;2.35;;;14.80;75.70;;;;;;5100825;28;20056;-68
2021/01/23 06:14:52;;;;;;;12.88;2.13;;;14.90;73.40;;;;;;5096673;28;20054;-68
2021/01/23 06:17:37;;;;;;;;;;;14.90;72.30;;;;;;5096431;28;20127;-68
2021/01/23 06:20:04;;;;;;;8.15;2.47;;;14.90;72.80;;;;;;5081977;28;20002;-67
2021/01/23 06:22:54;;;;;;;13.52;2.65;;;14.90;71.10;;;;;;5090115;28;20097;-68
2021/01/23 06:25:21;;;;;;;11.55;2.00;;;14.90;69.10;;;;;;5097929;28;20063;-65
2021/01/23 06:27:48;;;;;;;10.23;2.00;;;15.00;70.10;;;;;;5111000;28;20393;-67
2021/01/23 06:30:30;;;;;;;12.43;1.70;;;14.90;71.10;;;;;;5085074;28;20047;-68
2021/01/23 06:32:57;;;;;;;13.20;2.85;;;14.90;70.50;;;;;;5110579;28;20024;-67
2021/01/23 06:35:24;;;;;;;11.55;2.28;;;14.90;73.10;;;;;;5102443;28;20081;-67
2021/01/23 06:37:50;;;;;;;12.98;2.80;;;14.80;72.20;;;;;;5088837;28;20578;-67
2021/01/23 06:40:29;;;;;;;;;;;14.70;69.80;;;;;;5087682;28;20032;-67
2021/01/23 06:42:55;;;;;;;14.75;2.30;;;14.70;73.20;;;;;;5079785;28;20370;-67
2021/01/23 06:45:25;;;;;;;9.88;2.38;;;14.70;71.60;;;;;;5087650;28;20044;-66
2021/01/23 06:47:53;;;;;;;10.15;1.95;;;14.70;70.30;;;;;;5079001;28;20147;-66
2021/01/23 06:50:31;;;;;;;9.82;2.45;;;14.70;68.00;;;;;;5082408;28;20053;-66
2021/01/23 06:52:58;;;;;;;7.40;2.00;;;14.70;71.40;;;;;;5081783;28;20086;-66
2021/01/23 06:55:49;;;;;;;9.32;1.88;;;14.60;70.80;;;;;;5084208;28;20028;-66
2021/01/23 06:58:29;;;;;;;11.40;2.28;;;14.60;71.10;;;;;;5088584;28;20039;-66
2021/01/23 07:01:00;;;;;;;12.00;2.00;;;14.50;69.00;;;;;;5079305;28;20032;-66
2021/01/23 07:03:28;;;;;;;8.82;1.90;;;14.50;64.50;;;;;;5063752;28;20047;-66
2021/01/23 07:05:56;;;;;;;4.20;1.50;;;14.60;63.90;;;;;;5089124;28;20034;-66
2021/01/23 07:08:33;;;;;;;14.35;2.33;;;14.60;62.00;;;;;;5086390;28;20026;-66
2021/01/23 07:11:18;;;;;;;5.55;1.50;;;14.70;61.90;;;;;;5082542;28;20026;-66
2021/01/23 07:14:05;;;;;;;6.97;1.70;;;14.70;62.50;;;;;;5084032;28;20086;-66
2021/01/23 07:16:35;;;;;;;6.47;1.67;;;14.80;62.90;;;;;;5084019;28;20033;-66
2021/01/23 07:19:04;;;;;;;8.43;1.58;;;14.70;62.70;;;;;;5087234;28;20040;-66
2021/01/23 07:21:33;;;;;;;10.60;1.75;;;14.70;61.40;;;;;;5089917;28;20042;-67
2021/01/23 07:24:01;;;;;;;11.60;2.55;;;14.80;59.90;;;;;;5086801;28;20033;-67
2021/01/23 07:26:29;;;;;;;10.27;1.90;;;14.80;60.10;;;;;;5092748;28;20027;-66
2021/01/23 07:28:59;;;;;;;8.52;1.92;;;14.70;60.20;;;;;;5088212;28;20501;-66
2021/01/23 07:31:31;;;;;;;5.95;1.63;;;14.80;59.70;;;;;;5085041;28;20407;-66
2021/01/23 07:34:08;;;;;;;10.07;1.65;;;14.70;60.30;;;;;;5092238;28;20028;-65
2021/01/23 07:36:40;;;;;;;6.75;1.65;;;14.80;59.70;;;;;;5089806;28;20076;-66
2021/01/23 07:39:11;;;;;;;8.70;1.77;;;14.80;59.80;;;;;;5085206;28;20041;-66
2021/01/23 07:41:49;;;;;;;10.25;1.77;;;14.80;61.00;;;;;;5070819;28;20033;-66
2021/01/23 07:44:18;;;;;;;9.95;2.65;;;14.70;60.60;;;;;;5080012;28;20054;-65
2021/01/23 07:46:47;;;;;;;8.27;1.85;;;14.70;60.80;;;;;;5090892;28;20443;-66
2021/01/23 07:49:27;;;;;;;6.95;1.75;;;14.70;60.20;;;;;;5084028;28;20595;-66
2021/01/23 07:52:07;;;;;;;10.15;1.67;;;14.70;60.30;;;;;;5067686;28;20429;-66
2021/01/23 07:54:33;;;;;;;7.63;1.60;;;14.70;59.80;;;;;;5090494;28;20032;-66
2021/01/23 07:57:00;;;;;;;7.38;1.83;;;14.70;60.10;;;;;;5088410;28;20082;-66
2021/01/23 07:59:45;;;;;;;;;;;14.70;61.20;;;;;;5088949;28;20475;-67
2021/01/23 08:02:13;;;;;;;13.95;1.63;;;14.70;60.40;;;;;;5084320;28;20345;-66
2021/01/23 08:04:40;;;;;;;7.50;1.50;;;14.70;60.30;;;;;;5088222;28;20019;-66
2021/01/23 08:07:27;;;;;;;20.52;2.33;;;14.70;59.70;;;;;;5087178;28;20093;-65
2021/01/23 08:10:11;;;;;;;9.13;2.05;;;14.60;59.60;;;;;;5088658;28;20036;-66
2021/01/23 08:12:59;;;;;;;5.15;1.30;;;14.60;59.80;;;;;;5086843;28;20421;-66
2021/01/23 08:15:27;;;;;;;7.68;1.40;;;14.60;60.30;;;;;;5074533;28;20140;-66
2021/01/23 08:17:55;;;;;;;11.75;2.00;;;14.60;59.70;;;;;;5087791;28;20123;-67
2021/01/23 08:20:34;;;;;;;8.68;1.55;;;14.60;59.50;;;;;;5069211;28;21113;-66
2021/01/23 08:23:16;;;;;;;6.55;1.40;;;14.60;59.80;;;;;;5082496;28;20040;-67
2021/01/23 08:25:54;;;;;;;8.52;1.50;;;14.60;59.80;;;;;;5086676;28;20037;-67
2021/01/23 08:28:33;;;;;;;5.68;1.27;;;14.60;59.10;;;;;;5084679;28;20040;-66
2021/01/23 08:31:18;;;;;;;4.85;1.15;;;14.70;58.70;;;;;;5080436;28;20071;-67
2021/01/23 08:33:54;;;;;;;6.35;1.10;;;14.70;58.70;;;;;;5083360;28;20123;-67
2021/01/23 08:36:24;;;;;;;4.95;1.27;;;14.70;58.70;;;;;;5085423;28;20128;-66
2021/01/23 08:39:03;;;;;;;8.77;1.20;;;14.70;58.10;;;;;;5107642;28;20070;-66
2021/01/23 08:41:31;;;;;;;6.65;1.10;;;14.80;57.10;;;;;;5106735;28;20023;-66
2021/01/23 08:43:59;;;;;;;6.97;1.27;;;14.90;56.60;;;;;;5106565;28;20035;-66
2021/01/23 08:46:25;;;;;;;9.85;1.42;;;15.00;55.90;;;;;;5108424;28;20445;-66
2021/01/23 08:48:51;;;;;;;;;;;14.90;56.20;;;;;;5086448;28;20027;-66
2021/01/23 08:51:18;;;;;;;7.78;1.42;;;14.90;56.10;;;;;;5101506;28;20011;-67
2021/01/23 08:53:45;;;;;;;4.47;1.40;;;14.90;56.50;;;;;;5109424;28;20024;-67
2021/01/23 08:56:13;;;;;;;;;;;15.00;56.20;;;;;;5102529;28;20050;-66
2021/01/23 08:58:39;;;;;;;3.05;0.90;;;15.00;55.80;;;;;;5107949;27;19915;-66
2021/01/23 09:01:06;;;;;;;;;;;15.00;55.50;;;;;;5105829;28;20061;-67
2021/01/23 09:03:33;;;;;;;4.80;1.20;;;15.10;55.70;;;;;;5107896;28;19922;-68
2021/01/23 09:06:00;;;;;;;8.27;1.10;;;15.10;56.00;;;;;;5105945;28;20388;-67
2021/01/23 09:08:26;;;;;;;5.45;1.08;;;15.10;55.50;;;;;;5103467;28;20035;-67
2021/01/23 09:10:53;;;;;;;;;;;15.20;55.10;;;;;;5104983;28;20028;-67
2021/01/23 09:13:19;;;;;;;9.35;1.10;;;15.20;55.30;;;;;;5107180;28;20295;-66
2021/01/23 09:15:45;;;;;;;;;;;15.20;55.60;;;;;;5092218;28;20032;-69
2021/01/23 09:18:12;;;;;;;6.20;1.25;;;15.20;55.40;;;;;;5108044;28;19964;-68
2021/01/23 09:20:38;;;;;;;;;;;15.20;55.50;;;;;;5107346;28;20124;-68
2021/01/23 09:23:04;;;;;;;2.65;0.85;;;15.20;56.10;;;;;;5104248;28;19935;-67
2021/01/23 09:25:31;;;;;;;3.45;0.85;;;15.20;56.10;;;;;;5105345;28;20046;-68
2021/01/23 09:27:58;;;;;;;;;;;15.20;56.30;;;;;;5106640;28;20140;-68
2021/01/23 09:30:24;;;;;;;3.88;1.08;;;15.20;56.90;;;;;;5106832;28;20532;-68
2021/01/23 09:32:51;;;;;;;7.28;1.00;;;15.20;56.80;;;;;;5091624;28;20053;-67
2021/01/23 09:35:17;;;;;;;;;;;15.20;57.40;;;;;;5106677;28;20521;-67
2021/01/23 09:37:43;;;;;;;6.60;0.75;;;15.20;57.40;;;;;;5103719;28;19943;-68
2021/01/23 09:40:10;;;;;;;;;;;15.20;57.70;;;;;;5093201;28;20026;-68
2021/01/23 09:42:41;;;;;;;3.47;0.90;;;15.20;58.00;;;;;;5108466;28;20282;-67
2021/01/23 09:45:07;;;;;;;;;;;15.10;58.20;;;;;;5087510;28;20041;-68
2021/01/23 09:47:36;;;;;;;4.38;0.95;;;15.10;58.20;;;;;;5103139;28;19937;-68
2021/01/23 09:50:02;;;;;;;;;;;15.10;58.50;;;;;;5105331;28;20112;-68
2021/01/23 09:52:29;;;;;;;2.85;0.90;;;15.10;58.90;;;;;;5104832;28;19915;-68
2021/01/23 09:54:56;;;;;;;8.65;1.33;;;15.10;59.00;;;;;;5074531;28;20040;-68
2021/01/23 09:57:22;;;;;;;4.60;1.15;;;15.10;58.80;;;;;;5105868;28;20384;-68
2021/01/23 09:59:48;;;;;;;;;;;15.00;59.10;;;;;;5109619;28;20096;-67
2021/01/23 10:02:15;;;;;;;2.80;0.90;;;15.00;58.50;;;;;;5091729;28;19967;-67
2021/01/23 10:04:41;;;;;;;7.53;1.20;;;15.00;58.70;;;;;;5086661;28;20492;-68
2021/01/23 10:07:07;;;;;;;;;;;15.10;58.20;;;;;;5094133;28;20041;-67
2021/01/23 10:09:34;;;;;;;4.15;1.10;;;15.10;58.20;;;;;;5093737;28;20003;-66
2021/01/23 10:12:01;;;;;;;4.78;0.90;;;15.10;58.10;;;;;;5111241;28;20117;-68
2021/01/23 10:14:27;;;;;;;8.90;0.93;;;15.10;58.00;;;;;;5101026;28;20041;-68
2021/01/23 10:16:53;;;;;;;;;;;15.20;58.20;;;;;;5106434;28;20070;-67
2021/01/23 10:19:20;;;;;;;3.25;1.60;;;15.10;58.00;;;;;;5105180;28;20010;-69
2021/01/23 10:21:46;;;;;;;;;;;15.20;57.80;;;;;;5105670;28;20051;-66
2021/01/23 10:24:14;;;;;;;5.68;2.20;;;15.20;58.40;;;;;;5109677;28;19927;-66
2021/01/23 10:26:41;;;;;;;7.15;2.53;;;15.20;58.50;;;;;;5107497;28;20391;-67
2021/01/23 10:29:08;;;;;;;5.47;1.20;;;15.10;58.60;;;;;;5090747;28;20031;-67
2021/01/23 10:31:34;;;;;;;;;;;15.20;59.00;;;;;;5104465;28;20076;-67
2021/01/23 10:34:00;;;;;;;9.27;1.08;;;15.10;59.20;;;;;;5093350;28;19997;-67
2021/01/23 10:36:26;;;;;;;;;;;15.10;59.10;;;;;;5106705;28;20247;-67
2021/01/23 10:38:53;;;;;;;4.88;1.00;;;15.10;59.30;;;;;;5108583;28;19926;-68
2021/01/23 10:41:19;;;;;;;;;;;15.10;59.70;;;;;;5108071;28;20038;-66
2021/01/23 10:43:47;;;;;;;4.25;0.98;;;15.00;60.20;;;;;;5093291;28;20374;-67
2021/01/23 10:46:13;;;;;;;6.82;1.20;;;15.00;59.40;;;;;;5091849;28;20039;-68
2021/01/23 10:48:40;;;;;;;3.03;1.15;;;15.00;59.50;;;;;;5108581;28;20117;-68
2021/01/23 10:51:08;;;;;;;6.72;1.23;;;15.10;59.80;;;;;;5103477;28;20028;-68
2021/01/23 10:53:35;;;;;;;3.63;1.02;;;15.10;60.20;;;;;;5089793;28;20091;-66
2021/01/23 10:56:02;;;;;;;7.65;1.48;;;15.10;60.20;;;;;;5105468;28;20028;-67
2021/01/23 10:58:29;;;;;;;3.25;0.93;;;15.00;60.40;;;;;;5103512;28;20067;-68
2021/01/23 11:00:55;;;;;;;;;;;15.10;60.70;;;;;;5087140;28;20385;-67
2021/01/23 11:03:21;;;;;;;4.15;0.88;;;15.00;60.10;;;;;;5111133;28;19942;-67
2021/01/23 11:05:47;;;;;;;;;;;15.00;59.50;;;;;;5110118;28;20476;-67
2021/01/23 11:08:14;;;;;;;4.28;0.65;;;15.10;59.10;;;;;;5107990;28;20382;-67
2021/01/23 11:10:40;;;;;;;;;;;15.20;59.10;;;;;;5090773;28;20396;-66
2021/01/23 11:13:07;;;;;;;4.70;0.80;;;15.20;58.80;;;;;;5109423;28;19946;-67
2021/01/23 11:15:33;;;;;;;;;;;15.20;59.00;;;;;;5113040;28;20057;-66
2021/01/23 11:17:59;;;;;;;3.03;0.70;;;15.20;59.40;;;;;;5108777;28;20006;-67
2021/01/23 11:20:26;;;;;;;;;;;15.20;59.80;;;;;;5105895;28;20038;-67
2021/01/23 11:22:52;;;;;;;4.80;1.13;;;15.20;59.80;;;;;;5109488;28;19921;-67
2021/01/23 11:25:19;;;;;;;3.90;0.90;;;15.20;60.20;;;;;;5094330;28;20399;-68
2021/01/23 11:27:45;;;;;;;6.78;0.95;;;15.10;59.80;;;;;;5109767;28;20091;-67
2021/01/23 11:30:13;;;;;;;2.53;0.90;;;15.20;60.40;;;;;;5103874;28;20038;-67
2021/01/23 11:32:39;;;;;;;3.92;1.00;;;15.20;60.20;;;;;;5106844;28;20203;-67
2021/01/23 11:35:06;;;;;;;;;;;15.10;60.30;;;;;;5106824;28;20074;-67
2021/01/23 11:37:32;;;;;;;2.90;1.00;;;15.10;60.80;;;;;;5088381;28;19946;-67
2021/01/23 11:39:58;;;;;;;;;;;15.10;60.70;;;;;;5086901;28;20034;-68
2021/01/23 11:42:25;;;;;;;3.63;0.98;;;15.10;61.30;;;;;;5083562;28;19926;-67
2021/01/23 11:44:51;;;;;;;11.07;1.17;;;15.10;60.80;;;;;;5088624;28;20031;-67
2021/01/23 11:47:17;;;;;;;;;;;15.10;61.20;;;;;;5088200;28;20039;-67
2021/01/23 11:49:44;;;;;;;3.47;0.80;;;15.10;63.00;;;;;;5088587;28;19930;-68
2021/01/23 11:52:10;;;;;;;;;;;15.10;62.60;;;;;;5087661;28;20093;-67
2021/01/23 11:54:37;;;;;;;4.18;1.30;;;15.10;63.10;;;;;;5089748;28;19998;-67
2021/01/23 11:57:05;;;;;;;2.47;0.93;;;15.10;63.10;;;;;;5087251;28;20035;-66
2021/01/23 11:59:31;;;;;;;3.15;0.80;;;15.10;62.10;;;;;;5070318;28;20043;-68
2021/01/23 12:01:58;;;;;;;7.53;1.05;;;15.00;63.60;;;;;;5082612;28;20043;-67
2021/01/23 12:04:24;;;;;;;;;;;15.10;64.10;;;;;;5089882;28;20423;-67
2021/01/23 12:06:50;;;;;;;4.95;0.80;;;15.00;65.00;;;;;;5082663;28;20336;-67
2021/01/23 12:09:16;;;;;;;;;;;15.00;65.50;;;;;;5086777;28;20042;-67
2021/01/23 12:11:43;;;;;;;5.47;1.10;;;15.00;65.60;;;;;;5086173;28;20026;-67
2021/01/23 12:14:09;;;;;;;;;;;14.90;67.00;;;;;;5073868;28;20031;-68
2021/01/23 12:16:36;;;;;;;5.03;1.05;;;14.90;67.00;;;;;;5089709;28;19916;-67
2021/01/23 12:19:02;;;;;;;2.03;0.77;;;14.80;68.40;;;;;;5085186;28;20040;-67
2021/01/23 12:21:28;;;;;;;;;;;14.80;68.80;;;;;;5088081;28;20023;-67
2021/01/23 12:23:55;;;;;;;3.40;0.95;;;14.70;69.30;;;;;;5083129;28;19915;-67
2021/01/23 12:26:21;;;;;;;;;;;14.70;70.10;;;;;;5086055;28;20036;-67
2021/01/23 12:28:48;;;;;;;6.25;0.98;;;14.70;70.70;;;;;;5082697;28;20403;-67
2021/01/23 12:31:14;;;;;;;5.47;1.10;;;14.60;70.30;;;;;;5087149;28;20043;-67
2021/01/23 12:33:41;;;;;;;2.30;1.05;;;14.60;70.80;;;;;;5085569;28;20539;-66
2021/01/23 12:36:07;;;;;;;;;;;14.60;72.00;;;;;;5070142;28;20065;-67
2021/01/23 12:38:34;;;;;;;5.72;0.80;;;14.50;71.70;;;;;;5087714;28;20010;-67
2021/01/23 12:41:00;;;;;;;;;;;14.50;72.70;;;;;;5091017;28;20032;-67
2021/01/23 12:43:26;;;;;;;4.47;1.00;;;14.50;72.00;;;;;;5069300;28;20414;-67
2021/01/23 12:45:53;;;;;;;5.55;1.10;;;14.50;72.20;;;;;;5083778;28;20067;-68
2021/01/23 12:48:21;;;;;;;;;;;14.40;73.40;;;;;;5087239;28;20045;-67
2021/01/23 12:50:49;;;;;;;4.03;0.85;;;14.40;74.30;;;;;;5082368;28;19920;-67
2021/01/23 12:53:16;;;;;;;2.42;0.90;;;14.30;74.90;;;;;;5072093;28;20091;-67
2021/01/23 12:55:46;;;;;;;2.95;0.88;;;14.30;75.80;;;;;;5085991;28;20037;-67
2021/01/23 12:58:14;;;;;;;6.90;1.20;;;14.30;76.70;;;;;;5088137;28;20066;-68
2021/01/23 13:00:41;;;;;;;3.83;0.90;;;14.20;77.00;;;;;;5084395;28;20032;-66
2021/01/23 13:03:08;;;;;;;4.60;1.02;;;14.20;77.90;;;;;;5085865;28;20392;-67
2021/01/23 13:05:34;;;;;;;;;;;14.10;78.80;;;;;;5071052;28;20393;-67
2021/01/23 13:08:01;;;;;;;4.45;1.10;;;14.10;78.90;;;;;;5086651;28;19926;-67